Time;durP1;ratioP1;P1;durP2;ratioP2;P2;SDS_P1;SDS_P2;PMS_P1;PMS_P2;Temp;Humidity;BMP_temperature;BMP_pressure;BME280_temperature;BME280_humidity;BME280_pressure;Samples;Min_cycle;Max_cycle;Signal;HPM_P1;HPM_P2
2022/07/17 00:01:12;;;;;;;3.22;2.35;;;;;;;25.75;46.30;99767.66;4985828;28;20037;-86
2022/07/17 00:03:38;;;;;;;3.00;2.35;;;;;;;25.73;46.71;99764.19;4987421;28;20038;-85
2022/07/17 00:06:03;;;;;;;3.35;2.50;;;;;;;25.71;45.84;99771.56;4987799;28;20037;-87
2022/07/17 00:08:30;;;;;;;5.82;3.03;;;;;;;25.61;45.68;99765.13;4987381;28;20489;-86
2022/07/17 00:10:56;;;;;;;2.90;2.10;;;;;;;25.74;45.98;99793.78;4986857;28;20496;-86
2022/07/17 00:13:22;;;;;;;3.50;3.13;;;;;;;25.67;46.73;99787.16;4987113;28;20031;-87
2022/07/17 00:15:47;;;;;;;2.47;2.13;;;;;;;25.54;47.75;99776.41;4987222;28;20058;-87
2022/07/17 00:18:13;;;;;;;2.45;2.00;;;;;;;25.43;46.94;99781.75;4986950;28;20035;-85
2022/07/17 00:20:38;;;;;;;2.22;2.00;;;;;;;25.43;47.25;99799.81;4986483;28;20566;-85
2022/07/17 00:23:04;;;;;;;2.83;2.53;;;;;;;25.35;47.89;99795.84;4986727;28;20038;-85
2022/07/17 00:25:32;;;;;;;3.67;2.55;;;;;;;25.25;47.91;99797.47;4994321;28;20036;-85
2022/07/17 00:27:58;;;;;;;3.28;2.42;;;;;;;24.61;48.88;99806.59;4986788;28;20034;-85
2022/07/17 00:30:23;;;;;;;3.65;2.22;;;;;;;24.59;49.07;99810.38;4988774;28;20049;-85
2022/07/17 00:32:49;;;;;;;4.03;2.67;;;;;;;24.49;49.19;99802.91;4990764;28;20051;-85
2022/07/17 00:35:14;;;;;;;3.08;2.33;;;;;;;24.39;48.94;99788.38;4989084;28;20133;-85
2022/07/17 00:37:46;;;;;;;5.07;2.45;;;;;;;24.35;48.84;99792.25;4990878;28;20041;-87
2022/07/17 00:40:16;;;;;;;3.58;2.03;;;;;;;24.20;49.00;99796.88;4991070;28;20041;-86
2022/07/17 00:42:42;;;;;;;3.45;2.33;;;;;;;24.15;49.55;99795.50;4991112;28;20066;-86
2022/07/17 00:45:09;;;;;;;2.67;2.17;;;;;;;24.43;48.64;99797.09;4990558;28;20588;-86
2022/07/17 00:47:54;;;;;;;3.55;2.75;;;;;;;24.53;48.31;99784.72;4990700;28;20038;-86
2022/07/17 00:50:21;;;;;;;4.03;2.65;;;;;;;24.49;47.96;99784.03;4991005;28;20034;-86
2022/07/17 00:52:47;;;;;;;3.15;2.40;;;;;;;24.62;47.93;99813.75;4990571;28;20575;-87
2022/07/17 00:55:13;;;;;;;4.80;2.80;;;;;;;24.76;47.65;99803.75;4990425;28;20045;-85
2022/07/17 00:57:40;;;;;;;2.58;2.10;;;;;;;24.79;47.46;99806.25;4990350;28;20030;-85
2022/07/17 01:00:09;;;;;;;2.63;2.05;;;;;;;24.73;47.54;99823.75;4990625;28;20066;-86
2022/07/17 01:02:36;;;;;;;2.70;2.50;;;;;;;24.17;48.63;99820.50;4990840;28;20105;-86
2022/07/17 01:05:02;;;;;;;3.72;2.30;;;;;;;24.16;49.31;99832.25;4990507;28;20038;-85
2022/07/17 01:07:27;;;;;;;4.15;2.60;;;;;;;24.30;48.59;99810.59;4989408;28;20027;-86
2022/07/17 01:09:53;;;;;;;3.50;1.98;;;;;;;24.60;47.95;99812.97;4990669;28;20126;-86
2022/07/17 01:12:19;;;;;;;6.32;2.35;;;;;;;24.67;48.39;99818.81;4990465;28;20121;-85
2022/07/17 01:14:45;;;;;;;2.22;1.80;;;;;;;24.78;48.47;99824.28;4989297;28;20635;-85
2022/07/17 01:17:11;;;;;;;2.55;2.08;;;;;;;24.53;48.09;99821.56;4989910;28;20116;-85
2022/07/17 01:19:36;;;;;;;3.33;2.38;;;;;;;24.31;48.29;99804.22;4990310;28;20038;-85
2022/07/17 01:22:02;;;;;;;4.95;2.63;;;;;;;24.36;49.17;99823.66;4990198;28;20030;-84
2022/07/17 01:24:28;;;;;;;3.15;2.42;;;;;;;24.37;48.69;99819.97;4972512;28;20071;-86
2022/07/17 01:26:53;;;;;;;4.15;3.38;;;;;;;24.53;48.78;99833.25;4990197;28;20042;-85
2022/07/17 01:29:19;;;;;;;4.97;3.05;;;;;;;24.30;48.03;99807.91;4989635;28;20105;-86
2022/07/17 01:31:44;;;;;;;3.55;2.10;;;;;;;24.16;49.10;99830.44;4990014;28;20034;-86
2022/07/17 01:34:14;;;;;;;3.38;2.33;;;;;;;23.68;49.41;99811.22;4989798;28;20517;-85
2022/07/17 01:36:41;;;;;;;2.83;2.38;;;;;;;24.03;49.23;99841.16;4989394;28;20417;-85
2022/07/17 01:39:07;;;;;;;3.55;2.40;;;;;;;24.02;49.18;99833.19;4989495;28;20497;-86
2022/07/17 01:41:32;;;;;;;2.70;2.15;;;;;;;23.83;49.27;99825.50;4990057;28;20046;-86
2022/07/17 01:43:58;;;;;;;3.78;3.33;;;;;;;24.00;48.89;99854.84;4990569;28;20113;-85
2022/07/17 01:46:24;;;;;;;3.20;1.95;;;;;;;23.94;48.95;99850.78;4990485;28;20042;-86
2022/07/17 01:48:50;;;;;;;3.92;2.90;;;;;;;23.81;48.93;99814.81;4990220;28;20121;-86
2022/07/17 01:51:16;;;;;;;2.65;1.95;;;;;;;24.26;48.27;99846.81;4990115;28;20113;-86
2022/07/17 01:53:41;;;;;;;5.40;3.20;;;;;;;24.21;48.07;99830.97;4989748;28;20125;-85
2022/07/17 01:56:07;;;;;;;3.92;2.70;;;;;;;24.01;48.76;99816.19;4990266;28;20046;-86
2022/07/17 01:58:33;;;;;;;3.15;2.22;;;;;;;24.18;48.56;99833.03;4989468;28;20030;-85
2022/07/17 02:00:59;;;;;;;4.47;2.75;;;;;;;24.21;48.62;99840.88;4989782;28;20520;-85
2022/07/17 02:03:25;;;;;;;3.38;2.30;;;;;;;24.22;49.19;99856.97;4989748;28;20076;-85
2022/07/17 02:05:50;;;;;;;5.28;3.90;;;;;;;24.21;49.33;99822.88;4971710;28;20492;-85
2022/07/17 02:08:16;;;;;;;3.35;2.47;;;;;;;24.27;49.69;99852.09;4971633;28;20045;-85
2022/07/17 02:10:42;;;;;;;3.55;2.42;;;;;;;24.08;49.83;99822.88;4989577;28;20038;-85
2022/07/17 02:13:08;;;;;;;3.60;2.70;;;;;;;24.08;49.70;99824.69;4989751;28;20034;-86
2022/07/17 02:15:33;;;;;;;4.55;3.03;;;;;;;24.18;50.15;99844.66;4990495;28;20564;-87
2022/07/17 02:17:59;;;;;;;5.40;2.72;;;;;;;24.15;50.41;99830.53;4989050;28;20034;-87
2022/07/17 02:20:25;;;;;;;4.13;3.15;;;;;;;24.09;50.04;99853.38;4990298;28;20034;-85
2022/07/17 02:22:50;;;;;;;5.05;2.50;;;;;;;24.04;49.79;99853.69;4988997;28;20086;-85
2022/07/17 02:25:16;;;;;;;5.93;2.80;;;;;;;23.78;50.78;99847.34;4988618;28;20064;-85
2022/07/17 02:27:42;;;;;;;4.15;2.80;;;;;;;23.45;52.97;99866.59;4988682;28;20026;-84
2022/07/17 02:30:12;;;;;;;4.47;2.72;;;;;;;23.34;53.40;99856.53;4989148;28;20124;-84
2022/07/17 02:32:38;;;;;;;3.65;2.55;;;;;;;22.89;54.90;99849.53;4988669;28;20048;-85
2022/07/17 02:35:05;;;;;;;3.88;2.67;;;;;;;23.31;54.30;99876.47;4989243;28;20042;-85
2022/07/17 02:37:31;;;;;;;3.25;2.75;;;;;;;23.46;54.14;99869.19;4988021;28;20088;-85
2022/07/17 02:39:58;;;;;;;5.32;2.88;;;;;;;23.19;54.90;99853.06;4988279;28;20419;-86
2022/07/17 02:42:27;;;;;;;5.70;3.83;;;;;;;23.44;54.09;99849.59;4988875;28;20034;-87
2022/07/17 02:44:53;;;;;;;3.13;2.65;;;;;;;23.39;54.53;99841.84;4988763;28;20620;-86
2022/07/17 02:47:23;;;;;;;4.20;3.08;;;;;;;23.43;54.38;99845.19;4988162;28;20038;-87
2022/07/17 02:49:50;;;;;;;4.68;2.97;;;;;;;23.37;54.14;99840.19;4988821;28;20062;-86
2022/07/17 02:52:16;;;;;;;4.78;3.55;;;;;;;23.41;54.82;99882.97;4970325;28;20478;-87
2022/07/17 02:54:41;;;;;;;5.18;3.30;;;;;;;23.15;55.68;99876.59;4988613;28;20034;-87
2022/07/17 02:57:06;;;;;;;4.68;2.83;;;;;;;22.76;56.57;99853.09;4988184;28;20117;-87
2022/07/17 02:59:32;;;;;;;5.38;3.47;;;;;;;22.67;57.29;99849.13;4988502;28;20034;-87
2022/07/17 03:01:58;;;;;;;4.57;3.28;;;;;;;22.85;56.58;99849.81;4989029;28;20404;-86
2022/07/17 03:04:23;;;;;;;5.18;3.80;;;;;;;23.11;56.80;99863.44;4987869;28;20054;-86
2022/07/17 03:06:49;;;;;;;5.20;3.13;;;;;;;23.18;56.78;99870.16;4987336;28;20044;-86
2022/07/17 03:09:14;;;;;;;8.50;3.95;;;;;;;23.16;57.49;99880.16;4988994;28;20124;-87
2022/07/17 03:11:40;;;;;;;7.68;3.42;;;;;;;23.16;56.90;99855.94;4990158;28;20136;-87
2022/07/17 03:14:05;;;;;;;6.25;2.97;;;;;;;23.03;57.17;99863.88;4989123;28;20068;-87
2022/07/17 03:16:31;;;;;;;5.95;4.55;;;;;;;23.11;57.34;99866.13;4989601;28;20022;-85
2022/07/17 03:18:56;;;;;;;5.43;3.13;;;;;;;23.16;57.05;99893.59;4988485;28;20030;-84
2022/07/17 03:21:21;;;;;;;8.13;3.13;;;;;;;23.13;57.40;99896.50;4988860;28;20145;-85
2022/07/17 03:23:47;;;;;;;4.45;3.15;;;;;;;23.19;57.48;99896.09;4988672;28;20037;-86
2022/07/17 03:26:12;;;;;;;5.07;3.00;;;;;;;23.28;57.32;99900.00;4988320;28;20034;-85
2022/07/17 03:28:38;;;;;;;5.68;3.22;;;;;;;23.29;57.14;99894.53;4988623;28;20058;-86
2022/07/17 03:31:03;;;;;;;5.80;3.10;;;;;;;23.14;56.91;99872.19;4988838;28;20037;-86
2022/07/17 03:33:29;;;;;;;4.25;2.65;;;;;;;23.22;57.06;99875.22;4988061;28;20034;-86
2022/07/17 03:35:55;;;;;;;4.45;2.50;;;;;;;23.04;57.38;99865.63;4988496;28;20145;-86
2022/07/17 03:38:21;;;;;;;3.65;2.85;;;;;;;23.13;57.55;99896.50;4989062;28;20035;-86
2022/07/17 03:40:46;;;;;;;6.35;2.75;;;;;;;23.18;57.16;99889.84;4988322;28;20412;-86
2022/07/17 03:43:12;;;;;;;4.80;2.75;;;;;;;23.19;56.96;99891.56;4987906;28;20042;-85
2022/07/17 03:45:38;;;;;;;9.88;3.55;;;;;;;23.17;56.63;99901.59;4987975;28;20044;-86
2022/07/17 03:48:04;;;;;;;5.05;3.15;;;;;;;23.11;55.92;99893.91;4970998;28;20050;-86
2022/07/17 03:50:29;;;;;;;5.00;4.25;;;;;;;23.10;55.56;99859.88;4987505;28;20034;-86
2022/07/17 03:52:55;;;;;;;4.72;3.15;;;;;;;23.38;55.18;99872.41;4988458;28;21115;-86
2022/07/17 03:55:21;;;;;;;4.60;2.83;;;;;;;23.52;55.43;99873.31;4988347;28;20034;-85
2022/07/17 03:57:46;;;;;;;5.32;3.08;;;;;;;23.93;54.49;99907.44;4988223;28;20544;-85
2022/07/17 04:00:12;;;;;;;4.80;3.47;;;;;;;23.94;54.42;99890.28;4988520;28;20484;-86
2022/07/17 04:02:38;;;;;;;5.85;3.42;;;;;;;23.89;53.68;99892.44;4987867;28;20076;-86
2022/07/17 04:05:03;;;;;;;4.50;3.20;;;;;;;23.98;53.53;99890.97;4968660;28;20129;-86
2022/07/17 04:07:30;;;;;;;8.23;4.63;;;;;;;24.21;53.51;99919.03;4987566;28;20030;-87
2022/07/17 04:09:57;;;;;;;4.53;2.75;;;;;;;24.39;53.22;99903.41;4987735;28;20049;-86
2022/07/17 04:12:24;;;;;;;4.63;3.25;;;;;;;24.43;53.06;99894.16;4969897;28;20433;-85
2022/07/17 04:14:49;;;;;;;10.13;4.47;;;;;;;24.32;53.33;99894.91;4987085;28;20052;-85
2022/07/17 04:17:15;;;;;;;5.97;3.30;;;;;;;24.33;53.51;99918.19;4987418;28;20038;-85
2022/07/17 04:19:40;;;;;;;6.25;2.85;;;;;;;24.18;53.12;99906.63;4986599;28;20035;-84
2022/07/17 04:22:06;;;;;;;4.10;2.63;;;;;;;23.88;54.04;99898.78;4988104;28;20496;-84
2022/07/17 04:24:31;;;;;;;6.22;3.60;;;;;;;24.17;53.60;99931.00;4987387;28;20033;-85
2022/07/17 04:26:57;;;;;;;6.30;3.47;;;;;;;24.26;53.92;99920.44;4986948;28;20034;-84
2022/07/17 04:29:22;;;;;;;7.10;3.53;;;;;;;24.30;54.31;99919.28;4987459;28;20088;-85
2022/07/17 04:31:48;;;;;;;4.38;2.65;;;;;;;24.67;53.20;99918.59;4986984;28;20038;-85
2022/07/17 04:34:13;;;;;;;5.35;3.70;;;;;;;24.74;53.41;99927.09;4986832;28;20560;-84
2022/07/17 04:36:39;;;;;;;5.50;3.35;;;;;;;24.98;52.93;99932.59;4986789;28;20512;-85
2022/07/17 04:39:04;;;;;;;6.28;4.18;;;;;;;25.00;52.15;99922.53;4987099;28;20026;-85
2022/07/17 04:41:30;;;;;;;5.22;2.97;;;;;;;25.07;51.40;99933.75;4986530;28;20035;-83
2022/07/17 04:43:55;;;;;;;2.17;1.85;;;;;;;25.02;50.66;99918.78;4986930;28;20058;-84
2022/07/17 04:46:21;;;;;;;4.15;2.33;;;;;;;25.24;50.98;99943.34;4987512;28;20042;-85
2022/07/17 04:48:46;;;;;;;4.03;1.88;;;;;;;25.06;48.40;99905.06;4986535;28;20066;-87
2022/07/17 04:51:12;;;;;;;2.55;2.15;;;;;;;25.35;47.69;99925.44;4987529;28;20030;-85
2022/07/17 04:53:37;;;;;;;1.40;1.05;;;;;;;25.72;47.41;99930.81;4987440;28;20406;-85
2022/07/17 04:56:03;;;;;;;3.22;1.30;;;;;;;25.71;46.64;99933.63;4987318;28;20042;-84
2022/07/17 04:58:29;;;;;;;2.30;1.48;;;;;;;25.85;45.68;99933.44;4987415;28;20126;-85
2022/07/17 05:00:54;;;;;;;3.72;2.33;;;;;;;25.95;45.24;99930.03;4986690;28;20144;-86
2022/07/17 05:03:20;;;;;;;1.85;1.45;;;;;;;26.22;44.72;99949.59;4987101;28;20805;-86
2022/07/17 05:05:45;;;;;;;2.85;1.73;;;;;;;26.41;45.01;99959.00;4987634;28;20069;-88
2022/07/17 05:08:11;;;;;;;2.50;1.58;;;;;;;26.48;45.21;99929.63;4987447;28;20030;-87
2022/07/17 05:10:36;;;;;;;2.25;1.73;;;;;;;26.78;43.27;99951.63;4984952;28;20038;-87
2022/07/17 05:13:02;;;;;;;2.53;1.38;;;;;;;26.75;42.94;99943.75;4986658;28;20117;-87
2022/07/17 05:15:28;;;;;;;1.27;1.00;;;;;;;26.92;43.58;99955.94;4986262;28;20485;-86
2022/07/17 05:17:54;;;;;;;3.00;1.80;;;;;;;27.15;42.25;99961.38;4989369;28;20613;-85
2022/07/17 05:20:19;;;;;;;1.80;1.20;;;;;;;27.08;42.25;99954.72;4989692;28;20062;-84
2022/07/17 05:22:45;;;;;;;2.72;1.88;;;;;;;27.31;43.25;99955.56;4990078;28;20038;-87
2022/07/17 05:25:10;;;;;;;1.85;1.30;;;;;;;27.34;41.18;99958.06;4990649;28;20110;-85
2022/07/17 05:27:36;;;;;;;1.55;1.15;;;;;;;27.26;41.86;99957.78;4990763;28;20081;-85
2022/07/17 05:30:01;;;;;;;2.50;1.30;;;;;;;27.63;42.02;99971.09;4990449;28;20116;-85
2022/07/17 05:32:27;;;;;;;1.17;1.00;;;;;;;27.80;41.30;99951.56;4990218;28;20030;-85
2022/07/17 05:34:52;;;;;;;2.75;1.60;;;;;;;27.93;39.22;99977.66;4989787;28;20042;-85
2022/07/17 05:37:18;;;;;;;1.48;1.20;;;;;;;27.98;39.85;99956.50;4990054;28;20037;-85
2022/07/17 05:39:43;;;;;;;2.85;1.30;;;;;;;28.12;39.83;99974.31;4990298;28;20516;-84
2022/07/17 05:42:09;;;;;;;2.65;1.77;;;;;;;27.94;38.13;99966.69;4990739;28;20519;-87
2022/07/17 05:44:34;;;;;;;2.70;1.52;;;;;;;27.86;39.00;99985.44;4971311;28;20053;-84
2022/07/17 05:47:00;;;;;;;2.40;1.48;;;;;;;28.10;38.80;99982.56;4989017;28;20037;-86
2022/07/17 05:49:25;;;;;;;2.22;1.48;;;;;;;28.16;38.18;99981.19;4989822;28;20061;-85
2022/07/17 05:51:51;;;;;;;3.38;1.75;;;;;;;28.16;37.98;99987.47;4990299;28;20535;-85
2022/07/17 05:54:16;;;;;;;12.77;1.58;;;;;;;28.23;37.47;99985.09;4989641;28;20120;-87
2022/07/17 05:56:42;;;;;;;1.30;1.20;;;;;;;28.05;37.19;99976.66;4990243;28;20524;-87
2022/07/17 05:59:07;;;;;;;1.98;1.58;;;;;;;28.40;37.71;100006.22;4990222;28;20030;-87
2022/07/17 06:01:33;;;;;;;2.05;1.30;;;;;;;28.45;37.18;99994.97;4990066;28;20222;-86
2022/07/17 06:03:58;;;;;;;1.77;1.30;;;;;;;28.34;36.40;99997.75;4989680;28;20034;-88
2022/07/17 06:06:24;;;;;;;1.85;1.40;;;;;;;28.33;36.75;99982.47;4972339;28;20532;-85
2022/07/17 06:08:49;;;;;;;1.60;1.20;;;;;;;28.38;35.62;99986.50;4989390;28;20034;-87
2022/07/17 06:11:15;;;;;;;2.83;1.17;;;;;;;28.53;35.78;99984.34;4989612;28;20097;-88
2022/07/17 06:13:40;;;;;;;3.60;1.65;;;;;;;28.52;35.64;99970.91;4989368;28;20482;-86
2022/07/17 06:16:06;;;;;;;3.40;1.27;;;;;;;28.46;36.97;99971.44;4989014;28;20069;-85
2022/07/17 06:18:31;;;;;;;1.88;1.13;;;;;;;28.67;35.50;99995.88;4988733;28;20128;-86
2022/07/17 06:20:57;;;;;;;2.15;0.95;;;;;;;28.83;34.83;99990.84;4989782;28;20041;-87
2022/07/17 06:23:23;;;;;;;1.83;1.10;;;;;;;29.06;35.88;99999.72;4988320;28;20034;-87
2022/07/17 06:25:49;;;;;;;1.25;1.00;;;;;;;29.36;35.81;99967.28;4992272;28;20092;-91
2022/07/17 06:28:14;;;;;;;1.67;1.20;;;;;;;29.34;35.09;99956.53;4992949;28;20034;-93
2022/07/17 06:30:40;;;;;;;1.92;1.08;;;;;;;29.62;35.15;99948.63;4974536;28;20412;-89
2022/07/17 06:33:05;;;;;;;2.30;1.52;;;;;;;29.79;34.94;99975.09;4990165;28;20049;-88
2022/07/17 06:35:33;;;;;;;1.33;1.08;;;;;;;29.52;33.17;99945.00;4990367;28;20146;-87
2022/07/17 06:37:59;;;;;;;2.30;0.80;;;;;;;29.38;33.68;99936.28;4989794;28;20038;-90
2022/07/17 06:40:24;;;;;;;1.13;0.90;;;;;;;29.63;34.01;99950.34;4972740;28;20038;-89
2022/07/17 06:42:50;;;;;;;2.38;1.27;;;;;;;29.92;34.24;99941.38;4990145;28;20139;-90
2022/07/17 06:45:15;;;;;;;2.58;1.40;;;;;;;29.77;32.93;99930.06;4990320;28;20027;-90
2022/07/17 06:48:08;;;;;;;2.80;1.15;;;;;;;30.02;33.80;99976.75;4992524;28;20081;-90
2022/07/17 06:50:34;;;;;;;1.65;0.93;;;;;;;30.23;33.65;99942.13;4991101;28;20165;-89
2022/07/17 06:53:00;;;;;;;2.42;1.30;;;;;;;30.41;31.90;99957.75;4990859;28;20478;-90
2022/07/17 06:55:25;;;;;;;2.47;1.38;;;;;;;30.24;31.58;99946.53;4989850;28;20060;-90
2022/07/17 06:57:51;;;;;;;1.63;1.10;;;;;;;30.52;31.20;99941.25;4989106;28;20030;-89
2022/07/17 07:00:18;;;;;;;1.17;1.00;;;;;;;30.52;33.54;99944.84;4990971;28;20116;-89
2022/07/17 07:02:44;;;;;;;2.17;1.02;;;;;;;30.98;31.07;99983.16;4972537;28;20540;-91
2022/07/17 07:05:09;;;;;;;0.93;0.85;;;;;;;30.69;31.56;99929.63;4985856;28;20121;-95
2022/07/17 07:07:36;;;;;;;1.42;0.93;;;;;;;30.49;32.03;99936.09;4991089;28;20061;-90
2022/07/17 07:10:02;;;;;;;2.55;1.48;;;;;;;31.10;32.65;99972.94;4990551;28;20501;-92
2022/07/17 07:12:27;;;;;;;3.60;1.55;;;;;;;31.16;32.15;99977.81;4991302;28;20129;-95
2022/07/17 07:14:53;;;;;;;1.85;1.35;;;;;;;31.09;31.35;99973.94;4990305;28;20101;-90
2022/07/17 07:17:19;;;;;;;2.15;1.10;;;;;;;31.04;30.61;99977.13;4991415;28;20121;-91
2022/07/17 07:19:44;;;;;;;1.02;0.93;;;;;;;30.86;31.34;99962.53;4973649;28;20035;-92
2022/07/17 07:22:10;;;;;;;1.15;0.88;;;;;;;31.02;31.02;99954.63;4991818;28;20358;-90
2022/07/17 07:24:35;;;;;;;2.35;1.27;;;;;;;31.36;31.27;99955.94;4991427;28;20034;-93
2022/07/17 07:27:01;;;;;;;3.83;1.33;;;;;;;31.81;30.42;99976.91;4990784;28;20037;-92
2022/07/17 07:29:26;;;;;;;1.75;1.10;;;;;;;31.68;28.96;99980.00;4991549;28;20044;-89
2022/07/17 07:31:52;;;;;;;2.10;1.17;;;;;;;31.44;30.71;99961.47;4991492;28;20040;-93
2022/07/17 07:34:17;;;;;;;1.65;1.05;;;;;;;31.55;30.79;99974.06;4991158;28;20493;-93
2022/07/17 07:36:43;;;;;;;1.48;1.02;;;;;;;31.83;29.92;99972.16;4991339;28;20034;-92
2022/07/17 07:39:08;;;;;;;1.90;1.30;;;;;;;31.96;30.11;99982.69;4990619;28;20023;-91
2022/07/17 07:41:34;;;;;;;2.33;1.30;;;;;;;32.08;30.51;99994.25;4990360;28;20491;-92
2022/07/17 07:44:00;;;;;;;1.60;0.90;;;;;;;32.54;28.79;99986.84;4988065;28;20041;-90
2022/07/17 07:46:25;;;;;;;2.45;1.08;;;;;;;32.39;29.12;99963.84;4988423;28;20326;-91
2022/07/17 07:48:51;;;;;;;1.38;0.90;;;;;;;32.16;27.94;99968.94;4987492;28;20034;-91
2022/07/17 07:51:16;;;;;;;1.35;0.98;;;;;;;32.25;28.38;99974.31;4988448;28;20034;-89
2022/07/17 07:53:42;;;;;;;2.33;1.00;;;;;;;32.49;28.60;99997.38;4970668;28;20410;-90
2022/07/17 07:56:07;;;;;;;1.90;1.15;;;;;;;32.61;28.41;99968.81;4971039;28;20038;-91
2022/07/17 07:58:33;;;;;;;2.05;1.13;;;;;;;32.64;27.99;99990.38;4971115;28;20045;-92
2022/07/17 08:00:58;;;;;;;0.68;0.55;;;;;;;32.35;27.63;99987.88;4988740;28;20045;-89
2022/07/17 08:03:24;;;;;;;1.85;1.48;;;;;;;32.76;26.90;99987.38;4991453;28;20056;-93
2022/07/17 08:05:49;;;;;;;3.67;1.77;;;;;;;32.77;28.88;99986.38;4979840;28;20061;-92
2022/07/17 08:08:15;;;;;;;1.50;1.20;;;;;;;32.57;29.06;99961.09;4998714;28;20177;-92
2022/07/17 08:10:40;;;;;;;1.60;1.10;;;;;;;32.42;27.71;99993.56;4989112;28;20034;-90
2022/07/17 08:13:06;;;;;;;2.20;1.05;;;;;;;32.71;26.28;99990.59;4986135;28;20069;-91
2022/07/17 08:15:31;;;;;;;2.05;1.20;;;;;;;33.07;27.17;99973.22;4987103;28;20034;-90
2022/07/17 08:17:57;;;;;;;2.45;1.58;;;;;;;33.02;26.18;99988.22;4970312;28;20034;-90
2022/07/17 08:20:23;;;;;;;2.65;1.33;;;;;;;33.16;28.78;100005.91;4988139;28;20096;-94
2022/07/17 08:22:49;;;;;;;1.17;1.02;;;;;;;32.90;26.98;100000.44;4987506;28;20513;-91
2022/07/17 08:25:15;;;;;;;2.50;1.13;;;;;;;33.40;25.81;100014.41;4987452;28;20409;-92
2022/07/17 08:27:42;;;;;;;1.92;1.13;;;;;;;33.00;26.58;100001.19;4970239;28;20034;-93
2022/07/17 08:30:10;;;;;;;2.28;1.48;;;;;;;33.48;28.35;99992.59;4970456;28;20038;-92
2022/07/17 08:32:36;;;;;;;2.55;1.85;;;;;;;33.49;26.95;99986.09;4987191;28;20073;-92
2022/07/17 08:35:02;;;;;;;2.03;0.82;;;;;;;33.74;27.66;99992.56;4989321;28;20517;-90
2022/07/17 08:37:29;;;;;;;1.77;1.20;;;;;;;34.12;27.65;99983.91;4990403;28;20084;-91
2022/07/17 08:39:55;;;;;;;1.92;1.30;;;;;;;33.64;26.12;99975.41;4970620;28;20035;-94
2022/07/17 08:42:21;;;;;;;1.13;0.80;;;;;;;33.71;25.61;99999.22;4972280;28;20034;-93
2022/07/17 08:44:46;;;;;;;3.65;1.50;;;;;;;33.59;28.88;99981.38;4973286;28;20035;-89
2022/07/17 08:47:14;;;;;;;1.77;1.02;;;;;;;34.22;25.72;100006.53;4989302;28;20173;-90
2022/07/17 08:49:44;;;;;;;3.35;1.05;;;;;;;33.92;24.68;100000.63;4985694;28;20161;-89
2022/07/17 08:52:13;;;;;;;2.80;1.30;;;;;;;34.06;25.70;99966.28;4989299;28;20508;-89
2022/07/17 08:54:39;;;;;;;7.40;2.85;;;;;;;34.13;26.71;99980.16;4991737;28;20057;-90
2022/07/17 08:57:05;;;;;;;1.02;0.88;;;;;;;33.91;26.02;99990.72;4991254;28;20095;-89
2022/07/17 08:59:32;;;;;;;3.17;0.77;;;;;;;34.06;26.68;99994.53;4991748;28;20038;-91
2022/07/17 09:02:00;;;;;;;1.48;1.13;;;;;;;34.51;26.71;99978.66;4992340;28;20117;-89
2022/07/17 09:04:27;;;;;;;1.58;1.13;;;;;;;34.56;25.81;99986.38;4990547;28;20038;-90
2022/07/17 09:07:04;;;;;;;1.25;0.80;;;;;;;34.57;25.50;99996.28;4973911;28;20073;-89
2022/07/17 09:09:30;;;;;;;2.83;1.50;;;;;;;34.81;25.93;99989.97;4991575;28;20031;-89
2022/07/17 09:12:00;;;;;;;2.05;1.23;;;;;;;35.00;24.88;99977.75;4991777;28;20034;-92
2022/07/17 09:14:38;;;;;;;3.20;1.20;;;;;;;35.52;21.71;99961.84;4973403;28;20038;-86
2022/07/17 09:17:05;;;;;;;1.25;0.90;;;;;;;36.17;23.83;99996.31;4990544;28;20038;-85
2022/07/17 09:19:35;;;;;;;1.70;1.40;;;;;;;35.55;21.17;99986.19;4990134;28;20034;-88
2022/07/17 09:22:08;;;;;;;2.15;1.35;;;;;;;34.72;24.73;99978.13;4989858;28;20041;-90
2022/07/17 09:24:53;;;;;;;1.65;1.00;;;;;;;34.72;25.25;99986.34;4990556;28;20031;-88
2022/07/17 09:27:32;;;;;;;2.08;1.10;;;;;;;34.85;26.05;99998.69;4973338;28;20034;-95
2022/07/17 09:30:05;;;;;;;1.58;1.08;;;;;;;34.70;22.08;99957.44;4977214;28;20472;-95
2022/07/17 09:32:34;;;;;;;1.63;1.10;;;;;;;34.57;24.06;99971.63;4990946;28;20026;-95
2022/07/17 09:35:02;;;;;;;1.40;0.82;;;;;;;34.39;21.17;99975.41;4991410;28;20121;-92
2022/07/17 09:37:30;;;;;;;1.70;1.05;;;;;;;34.58;20.62;99967.88;4993928;28;20035;-96
2022/07/17 09:40:01;;;;;;;1.55;0.75;;;;;;;34.89;20.28;99975.41;4985042;28;20038;-96
2022/07/17 09:42:29;;;;;;;2.10;0.98;;;;;;;34.68;23.71;99960.34;4939926;28;20061;-94
2022/07/17 09:45:12;;;;;;;1.83;0.80;;;;;;;35.22;21.12;99962.47;4956466;28;20039;-93
2022/07/17 09:47:39;;;;;;;2.30;1.20;;;;;;;34.76;22.95;99952.13;4962880;28;20144;-95
2022/07/17 09:50:07;;;;;;;1.15;0.93;;;;;;;34.68;25.33;99965.81;4982813;28;20038;-96
2022/07/17 09:52:42;;;;;;;1.10;0.80;;;;;;;34.85;23.19;99982.25;5001091;28;20467;-95
2022/07/17 09:55:16;;;;;;;1.13;0.77;;;;;;;34.23;18.52;99983.56;4996317;28;20038;-95
2022/07/17 09:57:42;;;;;;;0.93;0.57;;;;;;;34.61;18.58;99984.81;4995865;28;20034;-96
2022/07/17 10:00:14;;;;;;;1.23;0.60;;;;;;;34.18;19.46;99985.97;4977452;28;20093;-96
2022/07/17 10:03:17;;;;;;;2.05;1.05;;;;;;;34.69;19.01;99972.13;4985089;28;20390;-93
2022/07/17 10:06:05;;;;;;;1.75;0.90;;;;;;;34.05;18.76;99979.13;4982645;28;20094;-96
2022/07/17 10:08:32;;;;;;;2.15;1.02;;;;;;;33.96;19.18;99957.41;4980720;28;20049;-90
2022/07/17 10:10:58;;;;;;;1.13;0.70;;;;;;;33.77;18.45;99964.88;4989299;28;20069;-93
2022/07/17 10:13:30;;;;;;;1.67;0.85;;;;;;;33.71;18.52;99988.28;4987563;28;20035;-94
2022/07/17 10:15:56;;;;;;;1.48;0.73;;;;;;;33.39;18.85;99955.31;4977641;28;20165;-95
2022/07/17 10:18:33;;;;;;;4.95;1.10;;;;;;;33.39;19.96;99923.38;4999479;28;20087;-92
2022/07/17 10:21:21;;;;;;;5.18;0.80;;;;;;;33.71;20.52;99933.56;4997708;28;20034;-94
2022/07/17 10:24:06;;;;;;;1.05;0.70;;;;;;;33.82;18.84;99931.56;4989034;28;20039;-95
2022/07/17 10:26:32;;;;;;;;;;;;;;;34.29;19.45;99971.97;4978998;28;20592;-88
2022/07/17 10:28:58;;;;;;;1.25;0.77;;;;;;;34.29;18.93;99957.44;4973652;28;19914;-93
2022/07/17 10:31:33;;;;;;;0.60;0.57;;;;;;;34.28;18.67;99959.34;4983428;28;20050;-95
2022/07/17 10:34:05;;;;;;;1.27;0.82;;;;;;;34.20;19.86;99943.72;4969822;28;20442;-96
2022/07/17 10:36:41;;;;;;;1.80;1.00;;;;;;;34.49;19.66;99952.47;4971588;28;20023;-95
2022/07/17 10:39:22;;;;;;;0.95;0.60;;;;;;;34.18;19.07;99932.06;4955227;29;20828;-93
2022/07/17 10:42:00;;;;;;;1.80;1.42;;;;;;;34.16;20.13;99920.47;4968804;28;20038;-95
2022/07/17 10:44:31;;;;;;;0.95;0.73;;;;;;;34.06;20.04;99914.28;4978137;28;20125;-94
2022/07/17 10:46:59;;;;;;;2.20;1.00;;;;;;;34.34;19.10;99906.63;4971042;28;20074;-92
2022/07/17 10:49:26;;;;;;;1.27;0.80;;;;;;;34.03;20.76;99907.28;4974015;28;20035;-91
2022/07/17 10:51:52;;;;;;;1.17;0.80;;;;;;;34.20;20.11;99915.50;4975117;28;20023;-96
2022/07/17 10:54:32;;;;;;;0.93;0.60;;;;;;;34.20;18.60;99923.69;4972665;28;20026;-94
2022/07/17 10:57:00;;;;;;;2.22;1.20;;;;;;;34.23;18.60;99906.94;4969546;28;20035;-94
2022/07/17 10:59:26;;;;;;;0.75;0.75;;;;;;;34.58;20.63;99902.16;4967738;28;20154;-94
2022/07/17 11:01:58;;;;;;;1.17;0.60;;;;;;;34.01;17.72;99913.94;4954460;29;20114;-95
2022/07/17 11:04:35;;;;;;;2.65;1.38;;;;;;;34.11;18.43;99911.03;4954408;28;20533;-90
2022/07/17 11:07:06;;;;;;;2.35;1.10;;;;;;;34.38;20.36;99898.94;4967921;28;20062;-90
2022/07/17 11:09:46;;;;;;;1.80;0.90;;;;;;;34.84;20.46;99929.34;4969450;28;20031;-92
2022/07/17 11:12:31;;;;;;;1.67;0.95;;;;;;;34.57;19.83;99901.31;4951236;29;20066;-91
2022/07/17 11:15:03;;;;;;;1.73;0.88;;;;;;;35.23;19.81;99900.25;4951872;28;20078;-91
2022/07/17 11:17:38;;;;;;;1.08;0.60;;;;;;;35.26;18.27;99887.06;4966631;28;20484;-93
2022/07/17 11:20:03;;;;;;;;;;;;;;;35.38;20.63;99920.44;4967348;28;20058;-90
2022/07/17 11:22:34;;;;;;;0.50;0.50;;;;;;;34.61;18.74;99894.44;4956370;28;20364;-94
2022/07/17 11:25:00;;;;;;;0.88;0.60;;;;;;;34.36;18.70;99879.09;4975732;28;20041;-92
2022/07/17 11:27:29;;;;;;;0.93;0.70;;;;;;;34.69;18.89;99885.34;4958943;28;20780;-93
2022/07/17 11:29:57;;;;;;;1.35;0.90;;;;;;;34.94;20.38;99885.28;4972366;28;20030;-90
2022/07/17 11:32:23;;;;;;;1.45;1.15;;;;;;;34.94;19.11;99909.94;4971109;28;20037;-94
2022/07/17 11:34:49;;;;;;;1.55;1.05;;;;;;;34.44;19.29;99898.22;4974153;28;20042;-91